ePrivacy and GPDR Cookie Consent by Cookie Consent
EmailTwitter


Surface observations / Canada / CYYZ (71624)

Regions: Quebec | Canada | USA | Europe | France | UK | Elsewhere
Station
Display
Info & Location for CYYZ (71624) | Help decoding METAR

Weather Conditions observed on 2022/01/17 at 21:00 UTC at TORONTO A, ON (CYYZ)

Sky conditions: partly cloudy.

Obstruction(s) to Vision: moderate snow blowing.

Temperature: -3.0 Celsius.

Dewpoint: -7.0 Celsius.

Relative Humidity: 74%

Windchill Factor -12.

Windchill Factor (Gusts) -13.

Winds: Northwest at 50 km/h or 27 knots.

Gust: 61 km/h or 33 knots.

Mean Sea level Pressure: 99.47 kilopascals.

Altimeter Setting (QNH): 99.36 kilopascals or 29.34 inches of mercury.

Horizontal visibility: 6.00 statute miles or 9.60 kilometers.

Height of the Ceiling: 1158 metres ( 3800 feet ).

Coded METAR:

CYYZ 172100Z 32027G33KT 6SM BLSN FEW022 BKN038 BKN250 M03/M07 A2934 RMK

CF1SC5CI1 SLP947=